Time;durP1;ratioP1;P1;durP2;ratioP2;P2;SDS_P1;SDS_P2;PMS_P1;PMS_P2;Temp;Humidity;BMP_temperature;BMP_pressure;BME280_temperature;BME280_humidity;BME280_pressure;Samples;Min_cycle;Max_cycle;Signal;HPM_P1;HPM_P2
2022/05/09 00:02:15;;;;;;;14.75;4.57;;;7.10;99.90;;;;;;4943784;29;20484;-94
2022/05/09 00:04:40;;;;;;;12.77;5.80;;;7.00;99.90;;;;;;4946524;29;20523;-91
2022/05/09 00:07:06;;;;;;;10.73;3.83;;;7.20;99.90;;;;;;4942480;29;20083;-95
2022/05/09 00:09:32;;;;;;;13.63;4.07;;;7.00;99.90;;;;;;4950618;28;20105;-93
2022/05/09 00:11:58;;;;;;;15.30;6.30;;;7.00;99.90;;;;;;4936421;29;20122;-93
2022/05/09 00:14:24;;;;;;;12.38;4.45;;;7.00;99.90;;;;;;4949712;28;20412;-93
2022/05/09 00:16:51;;;;;;;17.20;6.10;;;7.00;99.90;;;;;;4950806;29;20051;-92
2022/05/09 00:19:20;;;;;;;14.57;4.63;;;7.00;99.90;;;;;;4950274;28;20416;-92
2022/05/09 00:21:47;;;;;;;15.93;6.10;;;7.00;99.90;;;;;;4925124;29;20480;-91
2022/05/09 00:24:14;;;;;;;12.23;3.65;;;7.00;99.90;;;;;;4950633;28;20678;-91
2022/05/09 00:26:41;;;;;;;14.02;4.97;;;6.90;99.90;;;;;;4949756;29;20260;-91
2022/05/09 00:29:08;;;;;;;11.60;4.10;;;6.90;99.90;;;;;;4924130;28;20125;-92
2022/05/09 00:31:34;;;;;;;13.00;4.47;;;6.80;99.90;;;;;;4942438;29;20046;-90
2022/05/09 00:34:01;;;;;;;14.60;6.20;;;6.80;99.90;;;;;;4953340;29;20492;-92
2022/05/09 00:36:27;;;;;;;12.48;3.40;;;6.80;99.90;;;;;;4953136;29;20474;-91
2022/05/09 00:38:53;;;;;;;15.38;5.93;;;6.70;99.90;;;;;;4952858;29;20054;-91
2022/05/09 00:41:28;;;;;;;14.48;5.95;;;6.70;99.90;;;;;;4948057;29;20060;-94
2022/05/09 00:43:56;;;;;;;14.57;4.30;;;6.70;99.90;;;;;;4934696;29;20142;-91
2022/05/09 00:46:22;;;;;;;12.43;3.38;;;6.60;99.90;;;;;;4918422;29;20054;-95
2022/05/09 00:48:48;;;;;;;13.85;4.00;;;6.60;99.90;;;;;;4916981;29;20052;-91
2022/05/09 00:51:18;;;;;;;17.42;4.60;;;6.60;99.90;;;;;;4902066;29;20351;-93
2022/05/09 00:53:45;;;;;;;10.60;3.88;;;6.60;99.90;;;;;;4939402;29;20709;-91
2022/05/09 00:56:19;;;;;;;14.27;4.75;;;6.60;99.90;;;;;;4955622;29;20287;-92
2022/05/09 00:58:50;;;;;;;12.55;5.13;;;6.50;99.90;;;;;;4918487;29;20400;-90
2022/05/09 01:01:17;;;;;;;11.43;4.05;;;6.50;99.90;;;;;;4916393;29;20516;-92
2022/05/09 01:04:02;;;;;;;15.23;5.03;;;6.50;99.90;;;;;;4932222;29;20040;-90
2022/05/09 01:06:28;;;;;;;11.15;4.18;;;6.50;99.90;;;;;;4932531;29;20102;-91
2022/05/09 01:08:53;;;;;;;8.90;3.33;;;6.50;99.90;;;;;;4916169;29;20048;-90
2022/05/09 01:11:22;;;;;;;16.17;4.78;;;6.50;99.90;;;;;;4909473;29;20044;-92
2022/05/09 01:13:54;;;;;;;12.93;3.83;;;6.40;99.90;;;;;;4899717;29;20051;-91
2022/05/09 01:16:20;;;;;;;13.18;3.78;;;6.40;99.90;;;;;;4932203;29;20453;-91
2022/05/09 01:18:46;;;;;;;15.30;4.38;;;6.30;99.90;;;;;;4932231;29;20055;-91
2022/05/09 01:21:31;;;;;;;14.35;3.70;;;6.30;99.90;;;;;;4932757;29;20047;-90
2022/05/09 01:23:57;;;;;;;17.52;6.57;;;6.30;99.90;;;;;;4917903;29;20040;-91
2022/05/09 01:26:23;;;;;;;11.23;3.85;;;6.30;99.90;;;;;;4932402;29;20416;-91
2022/05/09 01:28:49;;;;;;;17.17;6.68;;;6.30;99.90;;;;;;4901838;29;20035;-91
2022/05/09 01:31:17;;;;;;;13.98;6.53;;;6.40;99.90;;;;;;4921570;29;20055;-91
2022/05/09 01:33:46;;;;;;;10.18;3.55;;;6.40;99.90;;;;;;4933301;29;20669;-91
2022/05/09 01:36:19;;;;;;;13.07;3.78;;;6.30;99.90;;;;;;4931291;29;20050;-92
2022/05/09 01:38:56;;;;;;;16.45;6.75;;;6.20;99.90;;;;;;4932453;29;20047;-90
2022/05/09 01:41:23;;;;;;;14.52;4.10;;;6.30;99.90;;;;;;4914103;29;20392;-91
2022/05/09 01:43:51;;;;;;;10.93;4.70;;;6.30;99.90;;;;;;4912121;29;20474;-90
2022/05/09 01:46:23;;;;;;;12.40;4.40;;;6.20;99.90;;;;;;4899341;29;20051;-92
2022/05/09 01:51:34;;;;;;;13.10;4.05;;;6.30;99.90;;;;;;4929853;29;20408;-91
2022/05/09 01:54:00;;;;;;;15.57;5.00;;;6.20;99.90;;;;;;4928275;29;20403;-91
2022/05/09 01:56:29;;;;;;;11.57;3.72;;;6.10;99.90;;;;;;4914849;29;20099;-92
2022/05/09 01:58:55;;;;;;;13.45;4.20;;;6.10;99.90;;;;;;4914290;29;20051;-90
2022/05/09 02:01:23;;;;;;;16.10;7.28;;;6.00;99.90;;;;;;4932345;29;20044;-91
2022/05/09 02:03:50;;;;;;;15.73;4.25;;;6.10;99.90;;;;;;4931084;29;20051;-91
2022/05/09 02:06:17;;;;;;;13.45;4.45;;;6.00;99.90;;;;;;4913863;29;20060;-90
2022/05/09 02:08:43;;;;;;;12.77;4.60;;;6.00;99.90;;;;;;4926977;29;20098;-92
2022/05/09 02:11:09;;;;;;;13.52;4.72;;;5.90;99.90;;;;;;4894640;29;20050;-90
2022/05/09 02:13:35;;;;;;;15.55;4.07;;;5.90;99.90;;;;;;4913783;29;20391;-90
2022/05/09 02:16:01;;;;;;;9.68;3.60;;;5.80;99.90;;;;;;4914601;29;20048;-90
2022/05/09 02:18:27;;;;;;;14.25;4.65;;;5.80;99.90;;;;;;4929732;29;20074;-90
2022/05/09 02:20:52;;;;;;;15.20;4.90;;;5.70;99.90;;;;;;4914739;29;20047;-91
2022/05/09 02:23:19;;;;;;;19.17;5.72;;;5.70;99.90;;;;;;4912534;29;20064;-91
2022/05/09 02:25:45;;;;;;;12.75;3.97;;;5.70;99.90;;;;;;4913658;29;20193;-91
2022/05/09 02:28:12;;;;;;;11.68;4.45;;;5.60;99.90;;;;;;4930797;29;20043;-89
2022/05/09 02:30:39;;;;;;;14.13;5.38;;;5.60;99.90;;;;;;4912751;29;20056;-90
2022/05/09 02:33:05;;;;;;;13.15;4.22;;;5.60;99.90;;;;;;4913646;29;20055;-90
2022/05/09 02:35:34;;;;;;;18.05;4.47;;;5.60;99.90;;;;;;4912974;29;20043;-90
2022/05/09 02:38:00;;;;;;;14.02;4.97;;;5.60;99.90;;;;;;4912013;29;20044;-91
2022/05/09 02:40:26;;;;;;;11.30;4.40;;;5.60;99.90;;;;;;4928507;29;20389;-91
2022/05/09 02:42:53;;;;;;;15.88;4.00;;;5.60;99.90;;;;;;4935478;29;20051;-90
2022/05/09 02:45:19;;;;;;;12.90;3.78;;;5.60;99.90;;;;;;4948638;29;20047;-90
2022/05/09 02:47:45;;;;;;;13.18;4.60;;;5.50;99.90;;;;;;4936321;29;20337;-90
2022/05/09 02:50:11;;;;;;;12.95;3.97;;;5.50;99.90;;;;;;4935499;29;20057;-90
2022/05/09 02:52:37;;;;;;;9.95;3.60;;;5.40;99.90;;;;;;4961758;29;20055;-90
2022/05/09 02:55:05;;;;;;;25.15;6.55;;;5.40;99.90;;;;;;4949098;29;20047;-90
2022/05/09 02:57:30;;;;;;;12.98;4.30;;;5.30;99.90;;;;;;4949544;29;20179;-90
2022/05/09 02:59:56;;;;;;;13.02;4.88;;;5.30;99.90;;;;;;4949674;29;20043;-91
2022/05/09 03:02:22;;;;;;;14.80;5.03;;;5.30;99.90;;;;;;4936845;29;20039;-89
2022/05/09 03:04:48;;;;;;;14.75;5.00;;;5.30;99.90;;;;;;4938271;29;20456;-89
2022/05/09 03:07:16;;;;;;;12.98;4.13;;;5.30;99.90;;;;;;4931383;29;20051;-91
2022/05/09 03:09:44;;;;;;;14.00;4.97;;;5.20;99.90;;;;;;4940602;29;20474;-92
2022/05/09 03:12:11;;;;;;;13.40;4.90;;;5.20;99.90;;;;;;4933625;29;20452;-90
2022/05/09 03:14:38;;;;;;;15.38;5.03;;;5.10;99.90;;;;;;4948165;29;20039;-90
2022/05/09 03:17:05;;;;;;;15.35;5.20;;;5.10;99.90;;;;;;4949079;29;20054;-90
2022/05/09 03:19:30;;;;;;;16.67;5.63;;;5.10;99.90;;;;;;4949372;29;20051;-90
2022/05/09 03:21:56;;;;;;;15.45;4.40;;;5.10;99.90;;;;;;4936714;29;20074;-90
2022/05/09 03:24:22;;;;;;;10.85;4.07;;;5.10;99.90;;;;;;4943443;29;20054;-91
2022/05/09 03:26:49;;;;;;;14.13;4.70;;;5.10;99.90;;;;;;4935438;29;20075;-90
2022/05/09 03:29:16;;;;;;;12.00;4.35;;;5.20;99.90;;;;;;4938277;29;20488;-90
2022/05/09 03:31:42;;;;;;;17.15;5.70;;;5.20;99.90;;;;;;4924953;29;20047;-89
2022/05/09 03:34:08;;;;;;;14.32;5.30;;;5.20;99.90;;;;;;4941816;29;20085;-89
2022/05/09 03:36:34;;;;;;;13.68;5.10;;;5.30;99.90;;;;;;4921142;29;20083;-89
2022/05/09 03:39:00;;;;;;;16.05;5.50;;;5.30;99.90;;;;;;4942442;29;20523;-90
2022/05/09 03:41:26;;;;;;;10.75;4.03;;;5.30;99.90;;;;;;4944366;29;20185;-91
2022/05/09 03:43:52;;;;;;;14.48;5.18;;;5.30;99.90;;;;;;4918039;29;20047;-92
2022/05/09 03:46:17;;;;;;;11.48;4.47;;;5.30;99.90;;;;;;4931622;29;20047;-90
2022/05/09 03:48:43;;;;;;;15.90;5.53;;;5.20;99.90;;;;;;4903626;29;20111;-90
2022/05/09 03:51:09;;;;;;;13.18;5.13;;;5.10;99.90;;;;;;4934392;29;20090;-90
2022/05/09 03:53:35;;;;;;;15.85;4.55;;;5.10;99.90;;;;;;4929262;29;20067;-89
2022/05/09 03:56:01;;;;;;;12.57;4.00;;;5.00;99.90;;;;;;4923906;29;20098;-91
2022/05/09 03:58:27;;;;;;;14.98;4.47;;;5.00;99.90;;;;;;4918630;29;20044;-90
2022/05/09 04:00:52;;;;;;;16.15;5.00;;;5.00;99.90;;;;;;4936178;29;20044;-90
2022/05/09 04:03:19;;;;;;;13.68;4.45;;;5.00;99.90;;;;;;4940684;29;20515;-90
2022/05/09 04:05:45;;;;;;;13.35;4.63;;;5.00;99.90;;;;;;4942498;28;20208;-90
2022/05/09 04:08:16;;;;;;;12.00;4.38;;;5.00;99.90;;;;;;4919593;29;20058;-90
2022/05/09 04:10:42;;;;;;;15.10;4.75;;;5.00;99.90;;;;;;4936829;29;20043;-89
2022/05/09 04:13:08;;;;;;;12.88;4.53;;;4.90;99.90;;;;;;4943088;29;20071;-90
2022/05/09 04:18:21;;;;;;;14.23;4.80;;;5.00;99.90;;;;;;4923594;29;20055;-90
2022/05/09 04:20:49;;;;;;;10.48;3.95;;;5.00;99.90;;;;;;4943183;28;21226;-89
2022/05/09 04:23:15;;;;;;;11.55;4.38;;;5.10;99.90;;;;;;4924758;29;20047;-90
2022/05/09 04:25:41;;;;;;;12.15;4.90;;;5.10;99.90;;;;;;4920219;29;20422;-91
2022/05/09 04:28:08;;;;;;;13.68;4.50;;;5.20;99.90;;;;;;4949757;29;20134;-91
2022/05/09 04:30:35;;;;;;;16.02;5.00;;;5.20;99.90;;;;;;4925804;29;20433;-90
2022/05/09 04:33:04;;;;;;;12.82;4.75;;;5.30;99.90;;;;;;4944074;29;20074;-91
2022/05/09 04:35:30;;;;;;;10.88;4.00;;;5.30;99.90;;;;;;4906313;29;20401;-91
2022/05/09 04:37:56;;;;;;;13.38;4.88;;;5.40;99.90;;;;;;4909911;29;20163;-92
2022/05/09 04:40:30;;;;;;;10.60;4.28;;;5.50;99.90;;;;;;4945973;29;20460;-89
2022/05/09 04:43:00;;;;;;;15.27;4.68;;;5.50;99.90;;;;;;4941451;29;20163;-87
2022/05/09 04:45:28;;;;;;;21.60;5.63;;;5.60;99.90;;;;;;4938822;29;20533;-89
2022/05/09 04:47:54;;;;;;;14.70;5.32;;;5.70;99.90;;;;;;4930672;29;20082;-88
2022/05/09 04:50:22;;;;;;;13.20;4.57;;;5.80;99.90;;;;;;4943169;29;20047;-89
2022/05/09 04:52:48;;;;;;;13.05;5.40;;;5.90;99.90;;;;;;4924688;29;20182;-88
2022/05/09 04:55:15;;;;;;;13.32;4.65;;;5.90;99.90;;;;;;4920915;29;20063;-88
2022/05/09 04:57:42;;;;;;;11.25;5.32;;;6.00;99.90;;;;;;4918917;29;20127;-89
2022/05/09 05:00:12;;;;;;;12.60;4.88;;;6.10;99.90;;;;;;4955063;28;20039;-87
2022/05/09 05:02:38;;;;;;;15.90;5.90;;;6.10;99.90;;;;;;4942485;29;20044;-93
2022/05/09 05:05:08;;;;;;;14.85;5.60;;;6.20;99.90;;;;;;4924283;29;20419;-92
2022/05/09 05:07:33;;;;;;;13.05;6.03;;;6.30;99.90;;;;;;4932131;29;20050;-94
2022/05/09 05:09:59;;;;;;;15.70;6.15;;;6.40;99.90;;;;;;4946029;29;20046;-87
2022/05/09 05:12:25;;;;;;;17.33;9.10;;;6.50;99.90;;;;;;4954621;28;20054;-87
2022/05/09 05:14:50;;;;;;;18.15;6.63;;;6.60;99.90;;;;;;4903705;29;20122;-90
2022/05/09 05:17:16;;;;;;;16.63;5.97;;;6.70;99.90;;;;;;4932347;29;20396;-88
2022/05/09 05:19:44;;;;;;;17.63;6.15;;;6.70;99.90;;;;;;4953474;28;20055;-90
2022/05/09 05:22:12;;;;;;;18.25;6.03;;;6.80;99.90;;;;;;4919372;29;20063;-91
2022/05/09 05:24:41;;;;;;;16.25;8.98;;;6.90;99.90;;;;;;4924473;29;20092;-94
2022/05/09 05:27:07;;;;;;;14.63;6.63;;;7.10;99.90;;;;;;4924861;29;20035;-87
2022/05/09 05:29:32;;;;;;;17.48;7.05;;;7.20;99.90;;;;;;4943509;29;20102;-89
2022/05/09 05:31:58;;;;;;;18.13;7.60;;;7.30;99.90;;;;;;4941566;29;20049;-91
2022/05/09 05:34:24;;;;;;;18.80;9.48;;;7.40;99.90;;;;;;4941611;29;20131;-88
2022/05/09 05:36:54;;;;;;;18.77;9.57;;;7.60;99.90;;;;;;4922905;29;20043;-94
2022/05/09 05:39:20;;;;;;;18.45;7.68;;;7.80;99.90;;;;;;4920889;28;20130;-90
2022/05/09 05:41:45;;;;;;;14.80;5.13;;;7.80;99.90;;;;;;4940525;29;20131;-87
2022/05/09 05:44:12;;;;;;;17.67;9.73;;;7.90;99.90;;;;;;4939306;29;20051;-89
2022/05/09 05:46:39;;;;;;;20.30;9.32;;;8.10;99.90;;;;;;4941499;29;20071;-87
2022/05/09 05:49:05;;;;;;;19.10;7.80;;;8.30;99.90;;;;;;4940052;29;20049;-87
2022/05/09 05:51:30;;;;;;;17.35;8.95;;;8.40;99.90;;;;;;4939310;29;20373;-88
2022/05/09 05:53:58;;;;;;;18.05;9.63;;;8.60;99.90;;;;;;4950633;29;20547;-88
2022/05/09 05:56:24;;;;;;;18.30;9.00;;;8.80;99.90;;;;;;4951939;28;20059;-90
2022/05/09 05:58:50;;;;;;;17.88;7.05;;;8.90;99.90;;;;;;4949858;29;20078;-87
2022/05/09 06:01:15;;;;;;;16.52;7.95;;;9.00;99.90;;;;;;4934151;29;20134;-87
2022/05/09 06:03:41;;;;;;;15.48;9.23;;;9.10;99.90;;;;;;4950077;29;20094;-87
2022/05/09 06:06:06;;;;;;;22.25;9.20;;;9.30;99.90;;;;;;4932460;29;20074;-88
2022/05/09 06:08:32;;;;;;;16.60;8.05;;;9.40;99.90;;;;;;4952262;28;20059;-87
2022/05/09 06:10:57;;;;;;;19.33;8.63;;;9.60;99.90;;;;;;4943027;29;20043;-86
2022/05/09 06:13:23;;;;;;;17.05;8.43;;;9.70;99.90;;;;;;4939672;29;20089;-86
2022/05/09 06:15:48;;;;;;;18.73;8.27;;;9.80;99.90;;;;;;4949118;29;20047;-87
2022/05/09 06:18:14;;;;;;;17.20;8.52;;;10.00;99.90;;;;;;4949258;29;20054;-90
2022/05/09 06:20:43;;;;;;;17.13;7.80;;;10.10;99.90;;;;;;4935637;29;20396;-88
2022/05/09 06:23:12;;;;;;;17.20;8.40;;;10.20;99.90;;;;;;4939166;29;20039;-88
2022/05/09 06:25:38;;;;;;;15.80;8.68;;;10.30;99.90;;;;;;4928181;29;20106;-88
2022/05/09 06:28:05;;;;;;;17.05;7.85;;;10.50;99.90;;;;;;4950015;28;20571;-88
2022/05/09 06:30:31;;;;;;;17.00;7.80;;;10.60;99.90;;;;;;4921168;29;20055;-87
2022/05/09 06:32:57;;;;;;;17.05;7.70;;;10.70;99.90;;;;;;4922617;29;20054;-89
2022/05/09 06:35:26;;;;;;;15.40;7.45;;;10.80;99.90;;;;;;4952259;28;20043;-86
2022/05/09 06:37:55;;;;;;;15.75;7.40;;;10.90;99.90;;;;;;4950441;29;20062;-90
2022/05/09 06:40:21;;;;;;;18.05;7.80;;;10.90;99.90;;;;;;4939246;29;20055;-87
2022/05/09 06:42:50;;;;;;;15.32;6.85;;;11.00;99.90;;;;;;4930451;29;20054;-87
2022/05/09 06:45:17;;;;;;;14.30;7.32;;;11.10;99.90;;;;;;4921643;29;20401;-88
2022/05/09 06:47:50;;;;;;;13.60;7.43;;;11.20;99.90;;;;;;4921680;29;20056;-87
2022/05/09 06:50:18;;;;;;;18.08;8.38;;;11.30;99.90;;;;;;4920094;29;20054;-87
2022/05/09 06:52:43;;;;;;;15.20;8.07;;;11.40;99.90;;;;;;4919568;29;20040;-88
2022/05/09 06:55:11;;;;;;;16.25;8.13;;;11.50;99.90;;;;;;4923182;29;20441;-87
2022/05/09 06:57:41;;;;;;;16.80;7.47;;;11.60;99.90;;;;;;4921884;29;20094;-87
2022/05/09 07:00:10;;;;;;;14.38;7.32;;;11.70;99.90;;;;;;4904609;29;20119;-83
2022/05/09 07:02:36;;;;;;;18.95;7.95;;;11.70;99.90;;;;;;4913001;29;20540;-83
2022/05/09 07:05:04;;;;;;;15.63;7.53;;;11.80;99.90;;;;;;4926734;29;20040;-83
2022/05/09 07:07:30;;;;;;;18.33;7.78;;;11.90;99.90;;;;;;4915592;29;20055;-84
2022/05/09 07:09:55;;;;;;;16.60;7.72;;;12.00;99.90;;;;;;4918004;29;20040;-83
2022/05/09 07:12:21;;;;;;;12.88;6.55;;;12.00;99.90;;;;;;4916418;29;20473;-83
2022/05/09 07:14:46;;;;;;;13.32;7.22;;;12.10;99.90;;;;;;4908351;29;20146;-81
2022/05/09 07:17:12;;;;;;;14.07;6.85;;;12.20;99.90;;;;;;4905156;29;20052;-84
2022/05/09 07:19:37;;;;;;;18.00;7.93;;;12.30;99.90;;;;;;4928451;29;20035;-83
2022/05/09 07:22:03;;;;;;;15.55;7.70;;;12.40;99.90;;;;;;4920911;29;20059;-84
2022/05/09 07:24:29;;;;;;;18.65;6.70;;;12.50;99.90;;;;;;4917504;29;20066;-83
2022/05/09 07:26:54;;;;;;;15.18;7.78;;;12.60;99.90;;;;;;4895946;29;20135;-84
2022/05/09 07:29:20;;;;;;;14.63;6.93;;;12.60;99.90;;;;;;4926876;29;20477;-84
2022/05/09 07:31:46;;;;;;;16.45;7.05;;;12.70;99.90;;;;;;4938794;29;20046;-84
2022/05/09 07:34:11;;;;;;;14.35;6.22;;;12.80;99.90;;;;;;4918604;29;20052;-84
2022/05/09 07:36:37;;;;;;;15.93;7.00;;;12.90;99.90;;;;;;4914070;29;20052;-83
2022/05/09 07:39:03;;;;;;;13.93;7.32;;;13.10;99.90;;;;;;4926975;29;20543;-85
2022/05/09 07:41:28;;;;;;;14.75;6.93;;;13.30;99.90;;;;;;4912717;29;20127;-85
2022/05/09 07:43:54;;;;;;;13.93;6.75;;;13.30;99.90;;;;;;4926751;29;20128;-85
2022/05/09 07:46:20;;;;;;;14.90;6.70;;;13.40;99.90;;;;;;4927952;29;20125;-85
2022/05/09 07:48:47;;;;;;;14.35;6.43;;;13.60;99.90;;;;;;4899718;29;20046;-88
2022/05/09 07:51:14;;;;;;;15.80;7.30;;;13.70;99.90;;;;;;4897776;29;20039;-85
2022/05/09 07:53:39;;;;;;;13.07;6.25;;;13.80;99.90;;;;;;4917569;29;20074;-85
2022/05/09 07:56:06;;;;;;;12.60;6.50;;;13.90;99.90;;;;;;4928858;29;20040;-85
2022/05/09 07:58:32;;;;;;;15.05;6.82;;;14.10;99.90;;;;;;4926611;29;20134;-85
2022/05/09 08:01:01;;;;;;;13.90;6.28;;;14.10;99.90;;;;;;4904289;29;20055;-85
2022/05/09 08:03:32;;;;;;;14.52;6.18;;;14.20;99.90;;;;;;4927465;29;20058;-85
2022/05/09 08:05:59;;;;;;;13.25;6.20;;;14.30;99.90;;;;;;4917514;29;20036;-88
2022/05/09 08:08:28;;;;;;;16.15;6.38;;;14.40;99.90;;;;;;4926275;29;20052;-85
2022/05/09 08:10:55;;;;;;;16.23;5.85;;;14.60;99.90;;;;;;4927336;29;20051;-86
2022/05/09 08:13:21;;;;;;;13.43;5.57;;;14.70;99.90;;;;;;4911395;29;20055;-86
2022/05/09 08:15:47;;;;;;;12.73;6.10;;;14.80;99.90;;;;;;4919413;29;20044;-88
2022/05/09 08:18:13;;;;;;;13.80;6.30;;;14.90;99.90;;;;;;4917141;29;20520;-86
2022/05/09 08:20:43;;;;;;;12.07;5.22;;;15.00;99.90;;;;;;4901984;29;20131;-87
2022/05/09 08:23:12;;;;;;;12.48;5.40;;;15.10;99.90;;;;;;4923225;29;20282;-85
2022/05/09 08:25:41;;;;;;;11.15;4.97;;;15.20;99.90;;;;;;4928595;29;20054;-87
2022/05/09 08:28:07;;;;;;;11.68;4.90;;;15.20;99.90;;;;;;4928052;29;20460;-87
2022/05/09 08:30:35;;;;;;;11.32;4.85;;;15.40;99.90;;;;;;4932852;29;20056;-86
2022/05/09 08:33:02;;;;;;;12.13;4.88;;;15.40;99.90;;;;;;4932563;29;20044;-87
2022/05/09 08:35:29;;;;;;;13.77;5.07;;;15.50;99.90;;;;;;4918552;29;20075;-86
2022/05/09 08:37:55;;;;;;;12.95;5.18;;;15.60;99.90;;;;;;4927038;29;20043;-87
2022/05/09 08:40:30;;;;;;;10.02;5.38;;;15.50;99.90;;;;;;4927246;29;20080;-87
2022/05/09 08:43:06;;;;;;;13.10;5.15;;;15.60;99.90;;;;;;4917710;29;20143;-88
2022/05/09 08:45:41;;;;;;;12.07;5.28;;;15.70;99.90;;;;;;4913234;29;20039;-88
2022/05/09 08:48:26;;;;;;;10.90;4.68;;;15.70;99.90;;;;;;4917136;29;20097;-86
2022/05/09 08:51:11;;;;;;;12.35;4.88;;;15.80;99.90;;;;;;4924765;29;20040;-87
2022/05/09 08:53:39;;;;;;;11.85;3.60;;;15.90;99.90;;;;;;4919370;29;20039;-88
2022/05/09 08:56:11;;;;;;;13.90;4.00;;;16.00;99.90;;;;;;4905059;29;20492;-87
2022/05/09 08:58:42;;;;;;;10.93;3.85;;;16.00;99.90;;;;;;4925743;29;20053;-89
2022/05/09 09:01:12;;;;;;;;;;;16.10;99.90;;;;;;4939698;29;20047;-86
2022/05/09 09:03:43;;;;;;;13.88;4.45;;;16.10;99.90;;;;;;4939793;29;19970;-90
2022/05/09 09:06:41;;;;;;;12.57;4.60;;;16.20;99.90;;;;;;4934349;29;20119;-88
2022/05/09 09:09:16;;;;;;;13.05;4.50;;;16.30;99.90;;;;;;4933306;29;20559;-89
2022/05/09 09:12:05;;;;;;;13.45;4.00;;;16.30;99.90;;;;;;4916843;29;20043;-89
2022/05/09 09:15:12;;;;;;;10.73;3.40;;;16.40;99.90;;;;;;4927962;29;20503;-88
2022/05/09 09:17:59;;;;;;;10.45;4.63;;;16.60;99.90;;;;;;4910777;29;20413;-90
2022/05/09 09:20:58;;;;;;;11.68;4.70;;;16.70;99.90;;;;;;4920641;29;20059;-90
2022/05/09 09:23:50;;;;;;;10.25;4.22;;;16.80;99.90;;;;;;4901747;29;20092;-89
2022/05/09 09:26:28;;;;;;;11.32;4.05;;;16.80;99.90;;;;;;4895173;29;20064;-88
2022/05/09 09:29:16;;;;;;;11.20;3.67;;;16.80;99.90;;;;;;4935399;29;20186;-88
2022/05/09 09:31:48;;;;;;;11.98;4.28;;;16.80;99.40;;;;;;4936365;29;20063;-90
2022/05/09 09:34:47;;;;;;;11.80;4.35;;;16.90;97.40;;;;;;4937192;29;20065;-88
2022/05/09 09:37:40;;;;;;;10.98;4.22;;;16.90;96.00;;;;;;4915421;29;20402;-89
2022/05/09 09:40:07;;;;;;;12.73;4.40;;;16.90;97.20;;;;;;4920507;28;20103;-87
2022/05/09 09:42:33;;;;;;;13.43;4.63;;;16.90;97.20;;;;;;4923124;29;20089;-87
2022/05/09 09:45:03;;;;;;;10.50;4.28;;;17.00;98.60;;;;;;4913538;29;20609;-87
2022/05/09 09:47:29;;;;;;;11.02;4.43;;;17.00;98.20;;;;;;4909578;29;20161;-88
2022/05/09 09:50:25;;;;;;;10.68;4.20;;;17.00;96.40;;;;;;4924097;29;20054;-88
2022/05/09 09:52:52;;;;;;;11.73;4.63;;;17.10;94.70;;;;;;4931590;29;20044;-86
2022/05/09 09:55:28;;;;;;;11.45;4.07;;;17.10;97.00;;;;;;4931587;29;20127;-94
2022/05/09 09:57:55;;;;;;;13.32;3.80;;;17.20;97.70;;;;;;4948985;28;20585;-94
2022/05/09 10:00:27;;;;;;;9.60;3.65;;;17.30;95.60;;;;;;4942282;29;20050;-96
2022/05/09 10:02:54;;;;;;;11.57;4.10;;;17.30;95.60;;;;;;4931461;29;20469;-93
2022/05/09 10:05:32;;;;;;;10.68;3.40;;;17.40;95.60;;;;;;4933666;29;20106;-95
2022/05/09 10:07:58;;;;;;;13.07;3.60;;;17.50;94.60;;;;;;4937378;29;20087;-95
2022/05/09 10:10:26;;;;;;;9.95;3.47;;;17.60;95.40;;;;;;4919121;29;20046;-94
2022/05/09 10:13:17;;;;;;;11.02;3.78;;;17.60;94.60;;;;;;4921590;29;20671;-92
2022/05/09 10:15:45;;;;;;;;;;;17.70;93.10;;;;;;4925772;29;20055;-93
2022/05/09 10:18:23;;;;;;;10.60;3.22;;;17.70;93.40;;;;;;4931895;29;19923;-94
2022/05/09 10:20:51;;;;;;;8.82;2.88;;;17.70;93.30;;;;;;4917709;29;20055;-93
2022/05/09 10:26:14;;;;;;;10.10;2.97;;;17.90;92.80;;;;;;4932651;29;20055;-90
2022/05/09 10:28:46;;;;;;;10.05;3.30;;;17.90;91.50;;;;;;4927755;29;20043;-86
2022/05/09 10:31:23;;;;;;;10.18;3.00;;;18.00;90.70;;;;;;4931843;29;20488;-86
2022/05/09 10:34:19;;;;;;;9.10;2.92;;;18.00;91.20;;;;;;4934593;29;20079;-86
2022/05/09 10:37:02;;;;;;;13.23;2.92;;;18.10;91.10;;;;;;4936097;29;20450;-87
2022/05/09 10:39:35;;;;;;;8.82;3.03;;;18.20;90.40;;;;;;4938790;28;20113;-87
2022/05/09 10:42:04;;;;;;;9.57;2.78;;;18.20;90.80;;;;;;4938293;29;20079;-86
2022/05/09 10:44:53;;;;;;;8.52;3.38;;;18.30;91.10;;;;;;4914587;29;20044;-86
2022/05/09 10:47:30;;;;;;;7.82;2.80;;;18.30;89.80;;;;;;4917263;29;20182;-86
2022/05/09 10:50:17;;;;;;;10.25;3.33;;;18.40;88.90;;;;;;4934149;29;20236;-85
2022/05/09 10:53:24;;;;;;;8.95;3.15;;;18.40;91.10;;;;;;4936144;29;20043;-88
2022/05/09 10:56:05;;;;;;;9.77;3.20;;;18.50;91.40;;;;;;4924493;29;20045;-94
2022/05/09 10:59:00;;;;;;;9.07;3.15;;;18.70;90.90;;;;;;4928159;29;20468;-89
2022/05/09 11:01:51;;;;;;;9.98;3.33;;;18.70;91.60;;;;;;4927826;29;20102;-88
2022/05/09 11:04:18;;;;;;;12.35;3.80;;;18.80;90.20;;;;;;4945740;29;20043;-93
2022/05/09 11:07:02;;;;;;;12.07;3.60;;;18.80;89.10;;;;;;4920077;29;20039;-91
2022/05/09 11:09:51;;;;;;;10.63;3.28;;;18.90;87.30;;;;;;4901691;29;20050;-88
2022/05/09 11:12:32;;;;;;;9.88;2.90;;;18.90;89.70;;;;;;4932211;29;20047;-87
2022/05/09 11:15:14;;;;;;;9.65;3.28;;;18.90;91.00;;;;;;4931113;29;20489;-88
2022/05/09 11:18:20;;;;;;;9.30;3.08;;;19.00;88.00;;;;;;4935528;29;20111;-88
2022/05/09 11:21:06;;;;;;;8.68;2.72;;;19.10;90.60;;;;;;4907195;29;20058;-88
2022/05/09 11:23:56;;;;;;;9.90;2.85;;;19.10;90.20;;;;;;4932088;29;20130;-88
2022/05/09 11:26:49;;;;;;;10.02;3.85;;;19.20;90.40;;;;;;4929395;29;20126;-90
2022/05/09 11:29:49;;;;;;;11.00;3.33;;;19.20;85.70;;;;;;4899938;29;20051;-87
2022/05/09 11:32:28;;;;;;;11.38;3.90;;;19.20;85.40;;;;;;4931843;29;20484;-87
2022/05/09 11:35:28;;;;;;;9.38;3.50;;;19.30;87.40;;;;;;4931961;29;20039;-88
2022/05/09 11:38:22;;;;;;;10.55;3.30;;;19.40;87.50;;;;;;4932284;28;20043;-90
2022/05/09 11:41:17;;;;;;;9.98;3.55;;;19.40;87.00;;;;;;4935688;28;20406;-87
2022/05/09 11:44:06;;;;;;;10.50;3.60;;;19.50;84.80;;;;;;4930940;29;20087;-87
2022/05/09 11:46:57;;;;;;;8.65;3.05;;;19.60;86.90;;;;;;4915936;29;20052;-87
2022/05/09 11:50:23;;;;;;;9.70;3.17;;;19.70;84.30;;;;;;4930537;29;20044;-87
2022/05/09 11:52:48;;;;;;;8.68;3.53;;;19.80;86.40;;;;;;4891640;29;20093;-86
2022/05/09 11:55:21;;;;;;;9.02;3.40;;;19.90;86.00;;;;;;4906432;29;20051;-87
2022/05/09 11:57:53;;;;;;;8.95;3.25;;;19.90;81.80;;;;;;4897520;29;20063;-88
2022/05/09 12:00:25;;;;;;;;;;;20.00;82.40;;;;;;4883962;29;20099;-86
2022/05/09 12:02:54;;;;;;;9.90;3.20;;;20.00;84.90;;;;;;4905087;29;19923;-88
2022/05/09 12:05:29;;;;;;;9.35;3.60;;;20.10;83.70;;;;;;4897137;29;20261;-89
2022/05/09 12:08:04;;;;;;;11.15;3.35;;;20.20;80.70;;;;;;4910491;29;20058;-89
2022/05/09 12:10:38;;;;;;;8.32;3.10;;;20.20;82.10;;;;;;4894779;29;20170;-90
2022/05/09 12:13:14;;;;;;;9.13;3.30;;;20.30;81.30;;;;;;4895341;29;20048;-87
2022/05/09 12:15:43;;;;;;;10.27;3.22;;;20.30;80.40;;;;;;4895041;29;20576;-87
2022/05/09 12:18:27;;;;;;;9.60;3.22;;;20.30;79.10;;;;;;4878865;29;20503;-89
2022/05/09 12:20:53;;;;;;;9.20;3.40;;;20.30;79.10;;;;;;4909618;29;20051;-88
2022/05/09 12:23:44;;;;;;;10.48;3.30;;;20.20;80.10;;;;;;4922748;29;20048;-88
2022/05/09 12:26:28;;;;;;;8.88;3.53;;;20.20;78.20;;;;;;4942733;29;20051;-89
2022/05/09 12:29:11;;;;;;;8.43;3.17;;;20.20;79.80;;;;;;4959059;29;20368;-88
2022/05/09 12:31:53;;;;;;;10.43;3.70;;;20.30;79.50;;;;;;4932043;29;20043;-89
2022/05/09 12:34:25;;;;;;;9.38;3.10;;;20.30;79.50;;;;;;4935708;29;20237;-87
2022/05/09 12:36:51;;;;;;;9.35;3.00;;;20.40;79.50;;;;;;4920170;29;20095;-90
2022/05/09 12:39:26;;;;;;;9.10;3.10;;;20.40;78.60;;;;;;4937862;28;20047;-88
2022/05/09 12:41:55;;;;;;;10.90;3.20;;;20.50;76.60;;;;;;4974006;28;20046;-88
2022/05/09 12:44:26;;;;;;;8.80;3.28;;;20.50;76.90;;;;;;4952449;29;20043;-91
2022/05/09 12:47:07;;;;;;;8.82;3.05;;;20.60;75.50;;;;;;4936809;29;20047;-90
2022/05/09 12:49:50;;;;;;;8.40;3.60;;;20.60;75.70;;;;;;4940823;28;20061;-89
2022/05/09 12:52:43;;;;;;;9.98;3.33;;;20.60;70.40;;;;;;4973572;28;20051;-88
2022/05/09 12:57:55;;;;;;;8.85;3.53;;;20.60;71.60;;;;;;4955671;28;20412;-89
2022/05/09 13:00:25;;;;;;;6.43;2.53;;;20.60;73.70;;;;;;4947378;28;20049;-90
2022/05/09 13:02:51;;;;;;;8.38;2.83;;;20.60;72.70;;;;;;4971217;28;20522;-89
2022/05/09 13:05:30;;;;;;;8.25;2.92;;;20.60;72.50;;;;;;4936836;29;20039;-91
2022/05/09 13:07:59;;;;;;;8.40;3.20;;;20.70;72.60;;;;;;4944947;28;20043;-88
2022/05/09 13:10:26;;;;;;;7.40;2.75;;;20.80;70.60;;;;;;4961720;28;20496;-88
2022/05/09 13:12:58;;;;;;;8.70;2.83;;;20.80;70.00;;;;;;4937997;29;20055;-87
2022/05/09 13:15:24;;;;;;;7.82;2.85;;;20.90;69.90;;;;;;4921590;29;20518;-88